Overberg Airport

Airport
ICAO code: 
FAOB
Summary
ICAO Region: 
AFI
Territory: 
Location: 
, Western Cape
Serving: 
Overberg
Elevation: 
52 ft
Coordinates: 
Aerial View: 
34° 33' 17.5" S, 20° 15' 2.452" E
Metar
Observation
FAOB 031200Z 15011KT 9999 SCT025 21/11 Q1015
Station
Overberg
Date/Time
2021-12-03 12:00:00
Wind direction
150°
Wind speed
11 kts
Lowest cloud amount
scattered clouds
Temperature
21°C
Dew point
11°C
Humidity
52%
QNH
1015 hPa
Weather condition
n/a

Runways

Designator Length Width Surface Rops
10/28 2111 40 ASP No/No
17/35 3115 46 ASP No/No
Airport map: 
Aerial View: 

SKYbrary Partners:

Safety knowledge contributed by: